createdAt,value
2023-03-13T00:02:09.832Z,76.96
2023-03-13T00:04:39.298Z,77.54
2023-03-13T00:07:07.368Z,78.18
2023-03-13T00:09:35.258Z,77.97
2023-03-13T00:12:03.249Z,78.19
2023-03-13T00:14:31.154Z,78.17
2023-03-13T00:16:59.396Z,78.01
2023-03-13T00:19:27.458Z,78.89
2023-03-13T00:21:57.132Z,79.02
2023-03-13T00:24:24.982Z,78.64
2023-03-13T00:26:53.407Z,79.41
2023-03-13T00:29:21.276Z,78.99
2023-03-13T00:31:49.508Z,79.78
2023-03-13T00:34:17.931Z,79.93
2023-03-13T00:36:45.933Z,79.99
2023-03-13T00:39:15.567Z,80.67
2023-03-13T00:41:43.873Z,80.54
2023-03-13T00:44:11.998Z,80.92
2023-03-13T00:46:39.947Z,81.03
2023-03-13T00:49:08.912Z,80.25
2023-03-13T00:51:36.876Z,80.32
2023-03-13T00:54:05.464Z,80.10
2023-03-13T00:56:35.557Z,80.13
2023-03-13T00:59:03.588Z,80.43
2023-03-13T01:01:33.545Z,80.62
2023-03-13T01:04:03.170Z,80.73
2023-03-13T01:06:33.350Z,80.49
2023-03-13T01:09:02.112Z,80.39
2023-03-13T01:11:31.876Z,80.94
2023-03-13T01:14:04.927Z,80.73
2023-03-13T01:16:34.756Z,80.41
2023-03-13T01:19:05.531Z,80.59
2023-03-13T01:21:33.531Z,80.43
2023-03-13T01:24:02.442Z,80.57
2023-03-13T01:26:30.632Z,81.01
2023-03-13T01:28:58.888Z,81.01
2023-03-13T01:31:30.878Z,81.14
2023-03-13T01:34:02.212Z,81.21
2023-03-13T01:36:31.195Z,81.11
2023-03-13T01:39:01.493Z,82.12
2023-03-13T01:41:31.745Z,81.74
2023-03-13T01:44:00.482Z,82.06
2023-03-13T01:46:35.427Z,81.63
2023-03-13T01:49:15.943Z,81.99
2023-03-13T01:52:08.626Z,81.60
2023-03-13T01:54:45.594Z,81.55
2023-03-13T01:57:22.246Z,82.32
2023-03-13T01:59:54.884Z,82.30
2023-03-13T02:02:25.713Z,82.44
2023-03-13T02:04:58.087Z,82.61
2023-03-13T02:07:31.807Z,82.92
2023-03-13T02:10:00.780Z,83.08
2023-03-13T02:12:32.888Z,83.37
2023-03-13T02:15:06.044Z,83.28
2023-03-13T02:17:37.084Z,83.26
2023-03-13T02:20:05.675Z,83.86
2023-03-13T02:22:41.597Z,83.55
2023-03-13T02:25:18.894Z,83.82
2023-03-13T02:27:49.506Z,84.37
2023-03-13T02:30:17.575Z,84.52
2023-03-13T02:32:46.862Z,84.91
2023-03-13T02:35:18.008Z,84.65
2023-03-13T02:37:49.519Z,84.57
2023-03-13T02:40:25.859Z,84.24
2023-03-13T02:42:56.737Z,84.53
2023-03-13T02:45:24.869Z,84.58
2023-03-13T02:47:52.941Z,84.98
2023-03-13T02:50:22.212Z,84.96
2023-03-13T02:52:57.012Z,85.05
2023-03-13T02:55:27.108Z,85.89
2023-03-13T02:57:56.572Z,86.72
2023-03-13T03:00:26.830Z,86.90
2023-03-13T03:02:56.455Z,87.13
2023-03-13T03:05:25.492Z,87.38
2023-03-13T03:07:53.580Z,88.09
2023-03-13T03:10:21.547Z,87.94
2023-03-13T03:12:50.167Z,87.47
2023-03-13T03:15:20.988Z,87.65
2023-03-13T03:17:49.788Z,88.34
2023-03-13T03:20:17.844Z,88.18
2023-03-13T03:22:45.739Z,88.22
2023-03-13T03:25:14.322Z,87.39
2023-03-13T03:27:42.598Z,88.15
2023-03-13T03:30:12.295Z,88.67
2023-03-13T03:32:42.286Z,88.96
2023-03-13T03:35:10.792Z,88.69
2023-03-13T03:37:38.859Z,88.61
2023-03-13T03:40:08.003Z,89.03
2023-03-13T03:42:36.465Z,89.28
2023-03-13T03:45:06.473Z,88.96
2023-03-13T03:47:34.703Z,89.34
2023-03-13T03:50:04.789Z,88.80
2023-03-13T03:52:40.088Z,89.28
2023-03-13T03:55:08.616Z,89.53
2023-03-13T03:57:36.788Z,89.26
2023-03-13T04:00:08.054Z,89.56
2023-03-13T04:02:41.053Z,90.47
2023-03-13T04:05:12.025Z,90.33
2023-03-13T04:07:41.579Z,90.74
2023-03-13T04:10:11.111Z,91.24
2023-03-13T04:12:44.239Z,90.93
2023-03-13T04:15:12.970Z,91.11
2023-03-13T04:17:41.639Z,91.17
2023-03-13T04:20:14.654Z,91.32
2023-03-13T04:22:43.300Z,91.50
2023-03-13T04:25:12.417Z,91.63
2023-03-13T04:27:40.426Z,91.94
2023-03-13T04:30:11.243Z,91.88
2023-03-13T04:33:02.617Z,92.27
2023-03-13T04:35:35.268Z,92.33
2023-03-13T04:38:30.003Z,92.01
2023-03-13T04:40:57.907Z,92.66
2023-03-13T04:43:51.727Z,92.24
2023-03-13T04:46:45.777Z,91.98
2023-03-13T04:49:34.992Z,92.67
2023-03-13T04:52:30.595Z,92.45
2023-03-13T04:55:18.865Z,92.29
2023-03-13T04:57:55.442Z,91.97
2023-03-13T05:00:37.883Z,93.15
2023-03-13T05:03:24.668Z,92.85
2023-03-13T05:06:08.872Z,92.48
2023-03-13T05:08:58.916Z,91.59
2023-03-13T05:11:45.522Z,91.47
2023-03-13T05:14:50.341Z,91.59
2023-03-13T05:17:32.952Z,92.62
2023-03-13T05:20:21.814Z,92.46
2023-03-13T05:23:04.119Z,93.25
2023-03-13T05:25:49.896Z,92.94
2023-03-13T05:28:26.975Z,93.05
2023-03-13T05:31:30.411Z,92.51
2023-03-13T05:34:10.160Z,92.33
2023-03-13T05:36:44.223Z,91.95
2023-03-13T05:39:30.815Z,91.23
2023-03-13T05:42:14.305Z,91.16
2023-03-13T05:44:51.565Z,91.31
2023-03-13T05:47:49.464Z,91.43
2023-03-13T05:50:35.968Z,92.14
2023-03-13T05:53:42.369Z,91.98
2023-03-13T05:56:26.989Z,91.81
2023-03-13T05:59:07.602Z,92.07
2023-03-13T06:02:11.101Z,91.94
2023-03-13T06:04:44.091Z,91.38
2023-03-13T06:07:12.524Z,91.53
2023-03-13T06:09:41.721Z,91.65
2023-03-13T06:12:11.966Z,91.43
2023-03-13T06:14:41.794Z,91.94
2023-03-13T06:17:15.488Z,92.54
2023-03-13T06:19:43.520Z,92.34
2023-03-13T06:22:11.495Z,92.07
2023-03-13T06:24:39.634Z,92.24
2023-03-13T06:27:08.532Z,92.07
2023-03-13T06:29:36.746Z,91.56
2023-03-13T06:32:06.997Z,90.82
2023-03-13T06:34:35.128Z,90.11
2023-03-13T06:37:03.225Z,89.94
2023-03-13T06:39:31.535Z,90.02
2023-03-13T06:41:59.873Z,89.26
2023-03-13T06:44:28.104Z,89.32
2023-03-13T06:46:56.042Z,89.66
2023-03-13T06:49:25.634Z,89.57
2023-03-13T06:51:53.674Z,89.82
2023-03-13T06:54:21.529Z,89.56
2023-03-13T06:56:49.473Z,89.68
2023-03-13T06:59:17.457Z,89.12
2023-03-13T07:01:46.003Z,89.10
2023-03-13T07:04:14.874Z,88.61
2023-03-13T07:06:44.380Z,88.08
2023-03-13T07:09:12.509Z,88.19
2023-03-13T07:11:40.948Z,87.55
2023-03-13T07:14:16.949Z,87.08
2023-03-13T07:16:45.772Z,86.58
2023-03-13T07:19:14.427Z,85.93
2023-03-13T07:21:44.316Z,85.71
2023-03-13T07:24:12.702Z,85.89
2023-03-13T07:26:46.456Z,85.94
2023-03-13T07:29:22.507Z,85.67
2023-03-13T07:31:50.516Z,85.66
2023-03-13T07:34:18.647Z,86.07
2023-03-13T07:36:48.621Z,86.13
2023-03-13T07:39:16.760Z,86.81
2023-03-13T07:41:44.818Z,87.19
2023-03-13T07:44:17.198Z,87.53
2023-03-13T07:46:46.052Z,87.59
2023-03-13T07:49:14.291Z,88.09
2023-03-13T07:51:44.273Z,88.06
2023-03-13T07:54:14.336Z,88.14
2023-03-13T07:56:42.335Z,88.63
2023-03-13T07:59:10.621Z,88.66
2023-03-13T08:01:38.668Z,88.45
2023-03-13T08:04:07.523Z,87.84
2023-03-13T08:06:36.921Z,88.48
2023-03-13T08:09:06.679Z,88.72
2023-03-13T08:11:36.058Z,88.11
2023-03-13T08:14:04.273Z,88.97
2023-03-13T08:16:34.930Z,88.82
2023-03-13T08:19:05.865Z,88.35
2023-03-13T08:21:35.958Z,87.62
2023-03-13T08:24:07.276Z,86.58
2023-03-13T08:26:38.990Z,86.40
2023-03-13T08:29:09.158Z,85.88
2023-03-13T08:31:39.353Z,85.72
2023-03-13T08:34:07.305Z,85.21
2023-03-13T08:36:36.906Z,85.32
2023-03-13T08:39:07.050Z,84.66
2023-03-13T08:41:37.785Z,83.93
2023-03-13T08:44:06.520Z,83.14
2023-03-13T08:46:36.218Z,82.57
2023-03-13T08:49:05.469Z,81.88
2023-03-13T08:51:33.528Z,81.03
2023-03-13T08:54:02.765Z,80.07
2023-03-13T08:56:31.671Z,79.30
2023-03-13T08:59:02.699Z,78.99
2023-03-13T09:01:33.311Z,79.20
2023-03-13T09:04:03.868Z,79.38
2023-03-13T09:06:32.565Z,79.76
2023-03-13T09:09:00.526Z,79.23
2023-03-13T09:11:28.990Z,78.67
2023-03-13T09:13:59.368Z,78.37
2023-03-13T09:16:30.675Z,78.41
2023-03-13T09:19:00.122Z,78.21
2023-03-13T09:21:30.098Z,78.45
2023-03-13T09:23:58.972Z,78.45
2023-03-13T09:26:28.332Z,77.60
2023-03-13T09:28:57.202Z,77.87
2023-03-13T09:31:26.718Z,77.82
2023-03-13T09:33:56.268Z,77.29
2023-03-13T09:36:24.936Z,78.02
2023-03-13T09:38:54.750Z,79.44
2023-03-13T09:41:26.757Z,79.99
2023-03-13T09:44:03.182Z,79.55
2023-03-13T09:46:38.898Z,78.92
2023-03-13T09:49:17.850Z,78.81
2023-03-13T09:51:51.223Z,77.96
2023-03-13T09:54:25.905Z,77.32
2023-03-13T09:56:57.568Z,75.93
2023-03-13T09:59:30.993Z,75.02
2023-03-13T10:02:02.110Z,74.28
2023-03-13T10:04:40.473Z,73.71
2023-03-13T10:07:12.246Z,73.06
2023-03-13T10:09:41.530Z,72.83
2023-03-13T10:12:16.836Z,72.57
2023-03-13T10:14:49.668Z,71.92
2023-03-13T10:17:29.336Z,69.55
2023-03-13T10:20:02.329Z,68.72
2023-03-13T10:22:32.525Z,68.44
2023-03-13T10:25:04.317Z,68.34
2023-03-13T10:27:32.448Z,67.28
2023-03-13T10:30:00.456Z,66.77
2023-03-13T10:32:28.671Z,65.72
2023-03-13T10:35:00.492Z,65.22
2023-03-13T10:37:30.743Z,64.67
2023-03-13T10:40:15.063Z,63.84
2023-03-13T10:42:46.193Z,63.30
2023-03-13T10:45:18.222Z,62.60
2023-03-13T10:47:46.216Z,62.22
2023-03-13T10:50:24.426Z,61.52
2023-03-13T10:52:52.979Z,62.04
2023-03-13T10:55:23.405Z,61.51
2023-03-13T10:57:59.743Z,61.60
2023-03-13T11:00:36.533Z,61.54
2023-03-13T11:03:08.890Z,61.61
2023-03-13T11:05:43.692Z,62.18
2023-03-13T11:08:22.713Z,62.10
2023-03-13T11:11:02.291Z,62.37
2023-03-13T11:13:37.643Z,62.17
2023-03-13T11:16:22.107Z,62.71
2023-03-13T11:19:09.282Z,62.14
2023-03-13T11:21:49.238Z,62.78
2023-03-13T11:24:25.540Z,63.00
2023-03-13T11:27:05.076Z,63.00
2023-03-13T11:29:43.188Z,62.68
2023-03-13T11:32:23.849Z,62.46
2023-03-13T11:34:55.717Z,62.51
2023-03-13T11:37:27.277Z,62.42
2023-03-13T11:40:11.089Z,62.28
2023-03-13T11:42:45.301Z,62.89
2023-03-13T11:45:22.654Z,63.00
2023-03-13T11:47:58.944Z,62.68
2023-03-13T11:50:36.898Z,62.12
2023-03-13T11:53:21.449Z,61.38
2023-03-13T11:56:03.368Z,61.03
2023-03-13T11:58:52.761Z,60.42
2023-03-13T12:01:24.216Z,60.08
2023-03-13T12:03:59.496Z,59.54
2023-03-13T12:06:32.068Z,57.88
2023-03-13T12:09:08.343Z,57.83
2023-03-13T12:11:43.673Z,58.08
2023-03-13T12:14:16.286Z,57.89
2023-03-13T12:16:49.382Z,57.99
2023-03-13T12:19:24.622Z,57.86
2023-03-13T12:21:55.817Z,57.72
2023-03-13T12:24:30.865Z,57.59
2023-03-13T12:27:03.368Z,57.56
2023-03-13T12:29:43.082Z,56.83
2023-03-13T12:32:16.111Z,56.96
2023-03-13T12:34:56.553Z,56.76
2023-03-13T12:37:32.313Z,56.67
2023-03-13T12:40:08.624Z,56.90
2023-03-13T12:42:48.168Z,56.69
2023-03-13T12:45:19.272Z,56.64
2023-03-13T12:48:10.329Z,56.26
2023-03-13T12:50:55.568Z,56.33
2023-03-13T12:53:58.338Z,55.80
2023-03-13T12:56:38.779Z,55.61
2023-03-13T12:59:10.421Z,54.52
2023-03-13T13:01:42.578Z,53.97
2023-03-13T13:04:15.411Z,54.43
2023-03-13T13:06:56.591Z,54.19
2023-03-13T13:09:26.169Z,53.44
2023-03-13T13:11:57.655Z,53.08
2023-03-13T13:14:59.936Z,53.37
2023-03-13T13:17:48.379Z,52.50
2023-03-13T13:20:32.174Z,52.78
2023-03-13T13:23:14.744Z,52.58
2023-03-13T13:25:42.933Z,52.56
2023-03-13T13:28:28.749Z,52.38
2023-03-13T13:30:57.917Z,52.08
2023-03-13T13:33:40.967Z,51.99
2023-03-13T13:36:31.304Z,51.34
2023-03-13T13:39:00.100Z,52.00
2023-03-13T13:41:38.463Z,51.53
2023-03-13T13:44:29.483Z,51.37
2023-03-13T13:47:01.911Z,51.28
2023-03-13T13:49:36.540Z,51.23
2023-03-13T13:52:37.041Z,51.26
2023-03-13T13:55:34.274Z,51.13
2023-03-13T13:58:05.296Z,50.98
2023-03-13T14:00:42.016Z,50.43
2023-03-13T14:03:20.342Z,50.32
2023-03-13T14:05:49.929Z,50.96
2023-03-13T14:08:24.094Z,50.38
2023-03-13T14:11:05.253Z,50.00
2023-03-13T14:13:33.326Z,49.93
2023-03-13T14:16:24.104Z,49.96
2023-03-13T14:18:53.416Z,49.95
2023-03-13T14:21:24.515Z,50.16
2023-03-13T14:23:52.384Z,50.97
2023-03-13T14:26:22.026Z,50.71
2023-03-13T14:28:51.802Z,50.38
2023-03-13T14:31:27.769Z,50.48
2023-03-13T14:33:57.765Z,51.37
2023-03-13T14:36:25.995Z,50.89
2023-03-13T14:38:56.790Z,51.17
2023-03-13T14:41:38.320Z,50.95
2023-03-13T14:44:08.311Z,50.46
2023-03-13T14:46:41.486Z,50.27
2023-03-13T14:49:17.426Z,50.07
2023-03-13T14:51:45.726Z,50.27
2023-03-13T14:54:28.880Z,50.56
2023-03-13T14:57:24.045Z,51.04
2023-03-13T14:59:53.706Z,51.08
2023-03-13T15:02:25.478Z,50.65
2023-03-13T15:04:57.507Z,50.53
2023-03-13T15:07:27.630Z,50.32
2023-03-13T15:09:55.807Z,51.05
2023-03-13T15:12:24.612Z,50.38
2023-03-13T15:14:54.023Z,50.41
2023-03-13T15:17:25.463Z,50.64
2023-03-13T15:19:55.841Z,50.59
2023-03-13T15:22:29.275Z,50.67
2023-03-13T15:25:06.069Z,50.80
2023-03-13T15:27:35.735Z,50.19
2023-03-13T15:30:03.967Z,51.17
2023-03-13T15:32:35.566Z,50.79
2023-03-13T15:35:12.909Z,50.14
2023-03-13T15:37:40.881Z,50.72
2023-03-13T15:40:15.551Z,50.87
2023-03-13T15:42:43.729Z,51.12
2023-03-13T15:45:12.597Z,51.10
2023-03-13T15:47:41.959Z,51.57
2023-03-13T15:50:13.849Z,51.27
2023-03-13T15:52:42.333Z,51.66
2023-03-13T15:55:12.881Z,51.41
2023-03-13T15:57:43.993Z,51.69
2023-03-13T16:00:18.986Z,51.47
2023-03-13T16:02:48.576Z,52.15
2023-03-13T16:05:17.280Z,51.99
2023-03-13T16:07:45.384Z,51.85
2023-03-13T16:10:19.051Z,52.21
2023-03-13T16:12:46.824Z,52.18
2023-03-13T16:15:15.009Z,52.43
2023-03-13T16:17:43.009Z,52.38
2023-03-13T16:20:19.060Z,52.47
2023-03-13T16:22:47.163Z,52.55
2023-03-13T16:25:16.007Z,52.92
2023-03-13T16:27:44.467Z,53.47
2023-03-13T16:30:18.726Z,53.48
2023-03-13T16:32:47.271Z,53.81
2023-03-13T16:35:17.513Z,53.32
2023-03-13T16:37:45.885Z,54.07
2023-03-13T16:40:18.775Z,54.14
2023-03-13T16:42:46.718Z,54.69
2023-03-13T16:45:15.556Z,54.63
2023-03-13T16:47:44.967Z,55.01
2023-03-13T16:50:24.596Z,55.05
2023-03-13T16:52:53.710Z,55.06
2023-03-13T16:55:24.766Z,55.24
2023-03-13T16:57:54.860Z,55.69
2023-03-13T17:00:24.199Z,55.73
2023-03-13T17:02:52.509Z,55.66
2023-03-13T17:05:22.434Z,56.03
2023-03-13T17:07:52.280Z,55.81
2023-03-13T17:10:23.000Z,55.97
2023-03-13T17:12:51.314Z,55.71
2023-03-13T17:15:21.815Z,56.30
2023-03-13T17:17:52.445Z,56.39
2023-03-13T17:20:25.230Z,56.31
2023-03-13T17:22:53.794Z,56.23
2023-03-13T17:25:21.968Z,56.46
2023-03-13T17:27:50.041Z,56.20
2023-03-13T17:30:24.082Z,55.90
2023-03-13T17:32:52.859Z,56.15
2023-03-13T17:35:23.247Z,56.22
2023-03-13T17:37:51.614Z,56.00
2023-03-13T17:40:21.943Z,55.84
2023-03-13T17:42:50.287Z,56.36
2023-03-13T17:45:18.940Z,56.51
2023-03-13T17:47:49.323Z,56.27
2023-03-13T17:50:21.198Z,56.09
2023-03-13T17:52:50.597Z,56.16
2023-03-13T17:55:19.168Z,55.72
2023-03-13T17:57:48.403Z,55.52
2023-03-13T18:00:22.318Z,55.85
2023-03-13T18:02:50.507Z,55.56
2023-03-13T18:05:19.529Z,55.43
2023-03-13T18:07:48.316Z,55.37
2023-03-13T18:10:22.837Z,56.05
2023-03-13T18:12:51.577Z,55.93
2023-03-13T18:15:20.381Z,55.68
2023-03-13T18:17:48.642Z,55.78
2023-03-13T18:20:18.616Z,55.44
2023-03-13T18:22:47.160Z,55.84
2023-03-13T18:25:16.238Z,55.57
2023-03-13T18:27:45.969Z,55.86
2023-03-13T18:30:20.597Z,56.45
2023-03-13T18:32:48.858Z,56.50
2023-03-13T18:35:17.763Z,56.14
2023-03-13T18:37:48.376Z,56.46
2023-03-13T18:40:20.720Z,56.11
2023-03-13T18:42:50.627Z,56.54
2023-03-13T18:45:21.069Z,56.44
2023-03-13T18:47:49.400Z,56.62
2023-03-13T18:50:23.622Z,56.38
2023-03-13T18:52:52.285Z,56.35
2023-03-13T18:55:20.491Z,56.82
2023-03-13T18:57:50.266Z,56.71
2023-03-13T19:00:20.989Z,56.45
2023-03-13T19:02:49.596Z,56.75
2023-03-13T19:05:18.778Z,56.92
2023-03-13T19:07:46.990Z,56.83
2023-03-13T19:10:20.418Z,57.00
2023-03-13T19:12:49.959Z,57.37
2023-03-13T19:15:19.083Z,56.73
2023-03-13T19:17:47.152Z,57.01
2023-03-13T19:20:17.388Z,57.51
2023-03-13T19:22:45.288Z,57.41
2023-03-13T19:25:17.033Z,56.93
2023-03-13T19:27:45.598Z,57.24
2023-03-13T19:30:19.219Z,58.17
2023-03-13T19:32:47.169Z,57.04
2023-03-13T19:35:18.950Z,57.95
2023-03-13T19:37:47.048Z,57.82
2023-03-13T19:40:19.470Z,57.89
2023-03-13T19:42:47.483Z,57.33
2023-03-13T19:45:17.390Z,57.79
2023-03-13T19:47:46.749Z,58.21
2023-03-13T19:50:19.178Z,58.89
2023-03-13T19:52:47.300Z,58.84
2023-03-13T19:55:15.935Z,59.20
2023-03-13T19:57:44.131Z,58.82
2023-03-13T20:00:20.842Z,58.87
2023-03-13T20:02:52.011Z,59.02
2023-03-13T20:05:20.216Z,59.76
2023-03-13T20:07:48.826Z,59.67
2023-03-13T20:10:17.398Z,59.70
2023-03-13T20:12:45.522Z,59.04
2023-03-13T20:15:13.955Z,59.52
2023-03-13T20:17:42.019Z,60.34
2023-03-13T20:20:13.712Z,59.83
2023-03-13T20:22:41.915Z,60.29
2023-03-13T20:25:10.801Z,60.26
2023-03-13T20:27:39.166Z,59.64
2023-03-13T20:30:09.237Z,59.98
2023-03-13T20:32:39.449Z,59.83
2023-03-13T20:35:15.896Z,60.19
2023-03-13T20:37:43.908Z,60.12
2023-03-13T20:40:13.753Z,60.37
2023-03-13T20:42:41.776Z,60.48
2023-03-13T20:45:10.341Z,60.12
2023-03-13T20:47:38.313Z,60.54
2023-03-13T20:50:07.733Z,60.04
2023-03-13T20:52:37.308Z,60.67
2023-03-13T20:55:06.174Z,60.79
2023-03-13T20:57:34.050Z,60.54
2023-03-13T21:00:02.407Z,60.90
2023-03-13T21:02:30.817Z,60.87
2023-03-13T21:04:58.998Z,60.29
2023-03-13T21:07:27.190Z,60.88
2023-03-13T21:09:56.523Z,60.79
2023-03-13T21:12:24.496Z,60.27
2023-03-13T21:14:53.620Z,60.78
2023-03-13T21:17:21.540Z,60.42
2023-03-13T21:19:49.819Z,60.03
2023-03-13T21:22:17.870Z,60.27
2023-03-13T21:24:48.544Z,60.35
2023-03-13T21:27:18.298Z,60.28
2023-03-13T21:29:47.380Z,60.70
2023-03-13T21:32:16.141Z,60.98
2023-03-13T21:34:44.582Z,61.75
2023-03-13T21:37:13.064Z,61.65
2023-03-13T21:39:42.161Z,61.50
2023-03-13T21:42:12.703Z,61.26
2023-03-13T21:44:42.218Z,60.89
2023-03-13T21:47:10.321Z,61.23
2023-03-13T21:49:38.527Z,61.29
2023-03-13T21:52:06.559Z,60.54
2023-03-13T21:54:34.500Z,60.31
2023-03-13T21:57:02.428Z,60.03
2023-03-13T21:59:31.886Z,60.00
2023-03-13T22:02:01.153Z,60.37
2023-03-13T22:04:29.324Z,61.14
2023-03-13T22:06:57.547Z,61.20
2023-03-13T22:09:25.470Z,61.75
2023-03-13T22:11:53.585Z,61.84
2023-03-13T22:14:22.184Z,62.10
2023-03-13T22:16:50.547Z,61.89
2023-03-13T22:19:20.122Z,62.11
2023-03-13T22:21:48.217Z,62.13
2023-03-13T22:24:16.148Z,62.29
2023-03-13T22:26:44.039Z,62.25
2023-03-13T22:29:12.126Z,61.92
2023-03-13T22:31:40.218Z,61.78
2023-03-13T22:34:08.579Z,62.04
2023-03-13T22:36:38.267Z,61.63
2023-03-13T22:39:07.368Z,62.40
2023-03-13T22:41:36.082Z,62.27
2023-03-13T22:44:04.644Z,62.26
2023-03-13T22:46:34.279Z,61.59
2023-03-13T22:49:02.742Z,60.79
2023-03-13T22:51:31.564Z,61.07
2023-03-13T22:54:01.823Z,60.86
2023-03-13T22:56:30.391Z,61.09
2023-03-13T22:58:58.507Z,60.79
2023-03-13T23:01:27.989Z,61.16
2023-03-13T23:03:57.201Z,61.09
2023-03-13T23:06:26.888Z,61.22
2023-03-13T23:08:55.202Z,61.08
2023-03-13T23:11:24.603Z,61.05
2023-03-13T23:13:52.575Z,61.06
2023-03-13T23:16:20.615Z,61.40
2023-03-13T23:18:48.837Z,61.24
2023-03-13T23:21:17.544Z,61.26
2023-03-13T23:23:45.874Z,61.17
2023-03-13T23:26:15.492Z,61.12
2023-03-13T23:28:44.910Z,61.27
2023-03-13T23:31:14.597Z,61.54
2023-03-13T23:33:42.997Z,61.96
2023-03-13T23:36:13.996Z,61.94
2023-03-13T23:38:42.414Z,62.93
2023-03-13T23:41:12.613Z,62.87
2023-03-13T23:43:43.842Z,62.23
2023-03-13T23:46:18.907Z,62.02
2023-03-13T23:48:47.431Z,62.10
2023-03-13T23:51:15.512Z,61.99
2023-03-13T23:53:44.462Z,62.51
2023-03-13T23:56:13.053Z,62.79
2023-03-13T23:58:41.345Z,63.25
